Latest Weather Observations for Halls Creek

IDW60801

Issued at 11:05 pm WST Friday 25 July 2014 (issued every 30 minutes, with the page automatically refreshed every 10 minutes)

About weather observations | Map of weather stations | Latest weather observations for WA | Other Formats
Station Details ID: 002012 Name: HALLS CREEK AIRPORT Lat: -18.23 Lon: 127.66 Height: 422.0 m
Data from the previous 72 hours. | See also: Recent months at Halls Creek
Date/Time
WST
Temp
°C
App
Temp
°C
Dew
Point
Rel
Hum
%
Delta-T
°C
Wind Press
QNH
hPa
Press
MSL
hPa
Rain
since 9 am
mm
Dir
 
Spd
km/h
Gust
km/h
Spd
kts
Gust
kts
25/11:00pm 19.5 15.9 0.5 28 8.6 SE 9 19 5 10 1021.0 - 0.0
25/10:30pm 19.5 15.9 0.9 29 8.5 SSE 9 15 5 8 1021.0 - 0.0
25/10:00pm 19.7 16.5 0.9 28 8.6 SE 7 13 4 7 1021.0 - 0.0
25/09:30pm 20.1 17.1 1.0 28 8.8 SE 6 15 3 8 1020.7 - 0.0
25/09:00pm 20.7 17.5 1.0 27 9.1 SSE 7 13 4 7 1020.7 1019.3 0.0
25/08:30pm 20.8 18.0 1.9 28 8.9 SSE 6 11 3 6 1020.4 - 0.0
25/08:00pm 20.9 18.1 1.8 28 9.0 SSE 6 13 3 7 1020.1 - 0.0
25/07:30pm 21.4 18.8 3.0 29 8.9 S 6 11 3 6 1019.7 - 0.0
25/07:00pm 22.6 19.0 0.8 23 10.2 SSE 9 15 5 8 1019.4 - 0.0
25/06:30pm 21.7 18.8 1.5 26 9.5 S 6 11 3 6 1019.0 - 0.0
25/06:00pm 22.0 19.5 3.7 30 9.0 S 6 7 3 4 1018.6 1017.2 0.0
25/05:30pm 23.3 20.7 3.2 27 9.9 SSE 6 9 3 5 1018.4 - 0.0
25/05:00pm 24.8 22.8 4.6 27 10.3 SSE 4 9 2 5 1018.1 - 0.0
25/04:30pm 26.8 24.5 2.5 20 12.1 SSE 4 7 2 4 1018.0 - 0.0
25/04:00pm 27.3 24.6 0.1 17 13.0 ESE 4 11 2 6 1017.7 - 0.0
25/03:30pm 27.4 24.4 0.8 17 12.9 SE 6 11 3 6 1017.6 - 0.0
25/03:00pm 27.5 24.1 -0.6 16 13.3 E 7 15 4 8 1017.4 1016.0 0.0
25/02:30pm 27.5 24.1 -0.6 16 13.3 SE 7 17 4 9 1017.6 - 0.0
25/02:00pm 27.4 24.0 -0.9 15 13.3 E 7 20 4 11 1017.8 - 0.0
25/01:30pm 27.0 23.5 -1.0 16 13.1 E 7 19 4 10 1018.1 - 0.0
25/01:00pm 26.2 22.6 0.8 19 12.2 ESE 9 26 5 14 1018.5 - 0.0
25/12:30pm 26.7 23.3 -0.5 17 12.8 SE 7 19 4 10 1018.9 - 0.0
25/12:00pm 26.2 22.0 -1.2 16 12.7 SE 11 22 6 12 1019.4 1018.0 0.0
25/11:30am 25.1 21.3 -0.9 18 12.0 SE 9 22 5 12 1019.9 - 0.0
25/11:00am 24.3 20.0 -1.9 17 11.8 ESE 11 22 6 12 1020.5 - 0.0
25/10:30am 23.6 19.2 -2.7 17 11.6 SE 11 19 6 10 1020.5 - 0.0
25/10:00am 23.4 18.5 -3.2 17 11.6 SE 13 22 7 12 1020.8 - 0.0
25/09:30am 22.5 18.0 -3.6 17 11.2 SE 11 22 6 12 1021.2 - 0.0
25/09:00am 21.0 16.1 -3.1 19 10.3 SE 13 24 7 13 1021.4 1020.0 0.0
25/08:30am 20.1 15.7 -2.5 21 9.7 SE 11 20 6 11 1021.2 - 0.0
25/08:00am 19.4 15.3 -2.8 22 9.4 SE 9 17 5 9 1021.1 - 0.0
25/07:30am 18.0 14.9 -0.1 29 8.0 SSE 6 11 3 6 1020.7 - 0.0
25/07:00am 15.5 13.4 1.4 38 6.3 SW 2 4 1 2 1020.3 - 0.0
25/06:30am 13.6 11.9 1.9 45 5.2 CALM 0 2 0 1 1019.6 - 0.0
25/06:00am 13.3 10.6 0.5 41 5.5 N 4 7 2 4 1019.4 1018.0 0.0
25/05:30am 13.8 11.1 0.6 40 5.7 NE 4 7 2 4 1018.8 - 0.0
25/05:00am 14.6 11.7 1.3 40 5.9 SSE 6 9 3 5 1018.3 - 0.0
25/04:30am 14.7 11.7 0.5 38 6.2 SSE 6 11 3 6 1018.1 - 0.0
25/04:00am 15.1 12.0 0.4 36 6.4 SSE 6 9 3 5 1018.2 - 0.0
25/03:30am 16.2 12.3 -1.2 30 7.4 SSE 9 17 5 9 1017.9 - 0.0
25/03:00am 15.8 12.8 0.6 35 6.7 SE 6 13 3 7 1018.0 1016.5 0.0
25/02:30am 15.9 12.7 0.8 36 6.7 ESE 7 11 4 6 1017.8 - 0.0
25/02:00am 16.7 14.5 0.8 34 7.1 S 2 9 1 5 1017.7 - 0.0
25/01:30am 17.0 14.5 1.6 35 7.0 SW 4 7 2 4 1017.6 - 0.0
25/01:00am 17.7 14.5 0.8 32 7.6 SSE 7 13 4 7 1017.7 - 0.0
25/12:30am 17.8 14.9 1.3 33 7.5 SSE 6 11 3 6 1017.8 - 0.0
25/12:00am 17.9 15.1 2.1 34 7.3 S 6 9 3 5 1017.9 1016.4 0.0
 
Date/Time
WST
Temp
°C
App
Temp
°C
Dew
Point
Rel
Hum
%
Delta-T
°C
Wind Press
QNH
hPa
Press
MSL
hPa
Rain
since 9 am
mm
Dir
 
Spd
km/h
Gust
km/h
Spd
kts
Gust
kts
24/11:30pm 18.9 16.1 1.9 32 7.9 S 6 11 3 6 1018.1 - 0.0
24/11:00pm 20.1 16.6 1.0 28 8.8 SSE 9 19 5 10 1017.8 - 0.0
24/10:30pm 20.3 16.8 1.0 27 8.9 S 9 20 5 11 1017.8 - 0.0
24/10:00pm 20.3 17.3 1.7 29 8.7 S 7 13 4 7 1017.9 - 0.0
24/09:30pm 20.6 18.0 3.2 31 8.4 S 6 11 3 6 1017.9 - 0.0
24/09:00pm 21.6 18.8 3.0 29 9.0 S 7 17 4 9 1017.6 1016.1 0.0
24/08:30pm 21.9 19.2 3.6 30 9.0 S 7 20 4 11 1017.2 - 0.0
24/08:00pm 22.9 20.3 4.4 30 9.3 S 7 17 4 9 1016.8 - 0.0
24/07:30pm 23.1 21.6 6.7 34 8.6 WSW 4 6 2 3 1016.4 - 0.0
24/07:00pm 23.1 21.8 7.5 36 8.3 S 4 6 2 3 1016.0 - 0.0
24/06:30pm 23.8 22.2 6.5 33 9.1 SW 4 6 2 3 1015.6 - 0.0
24/06:00pm 24.1 22.4 6.1 31 9.4 SSW 4 4 2 2 1015.4 1013.9 0.0
24/05:30pm 24.4 22.2 5.5 29 9.8 SSE 6 9 3 5 1015.1 - 0.0
24/05:00pm 25.7 24.5 6.5 29 10.2 SSW 2 4 1 2 1014.7 - 0.0
24/04:30pm 26.7 25.4 5.9 26 11.0 NW 2 4 1 2 1014.5 - 0.0
24/04:00pm 27.9 25.8 4.0 21 12.3 SSW 4 9 2 5 1014.4 - 0.0
24/03:30pm 28.1 25.4 2.7 19 12.8 SSW 6 15 3 8 1014.3 - 0.0
24/03:00pm 27.8 26.0 3.2 20 12.5 ESE 2 13 1 7 1014.3 1012.9 0.0
24/02:30pm 28.5 26.1 4.5 21 12.5 SSE 6 13 3 7 1014.5 - 0.0
24/02:00pm 27.6 25.9 4.1 22 12.1 SE 2 6 1 3 1014.6 - 0.0
24/01:30pm 28.2 25.7 4.6 22 12.3 ESE 7 19 4 10 1014.9 - 0.0
24/01:00pm 27.3 24.5 5.1 24 11.6 ESE 9 17 5 9 1015.2 - 0.0
24/12:30pm 27.5 24.7 5.2 24 11.7 SE 9 19 5 10 1015.7 - 0.0
24/12:00pm 27.1 24.4 5.7 25 11.3 SSE 9 19 5 10 1016.2 1014.8 0.0
24/11:30am 25.9 22.3 5.0 26 10.8 SSE 13 26 7 14 1016.8 - 0.0
24/11:00am 25.8 22.6 4.9 26 10.8 SSE 11 22 6 12 1017.4 - 0.0
24/10:30am 25.2 22.0 5.0 27 10.4 SSE 11 22 6 12 1018.0 - 0.0
24/10:00am 24.4 21.4 3.9 26 10.3 SSE 9 19 5 10 1018.2 - 0.0
24/09:30am 23.3 20.7 4.1 28 9.6 SE 7 17 4 9 1018.5 - 0.0
24/09:00am 22.7 19.2 3.4 28 9.5 SE 11 22 6 12 1018.7 1017.3 0.0
24/08:30am 21.3 16.9 2.8 29 8.9 SE 15 24 8 13 1018.5 - 0.0
24/08:00am 20.4 15.7 3.2 32 8.3 SE 17 28 9 15 1018.2 - 0.0
24/07:30am 19.9 17.0 4.8 37 7.5 SSE 9 22 5 12 1017.9 - 0.0
24/07:00am 18.9 16.1 5.2 40 6.8 SSE 9 17 5 9 1017.3 - 0.0
24/06:30am 17.7 15.3 5.3 44 6.1 SSE 7 17 4 9 1016.9 - 0.0
24/06:00am 17.1 14.5 6.1 48 5.5 SSE 9 17 5 9 1016.7 1015.3 0.0
24/05:30am 17.1 14.6 6.6 50 5.3 SSE 9 15 5 8 1016.3 - 0.0
24/05:00am 16.7 14.7 7.3 54 4.8 S 7 11 4 6 1016.1 - 0.0
24/04:30am 16.9 15.1 7.3 53 4.9 SSE 6 11 3 6 1015.9 - 0.0
24/04:00am 17.5 15.7 7.1 50 5.3 SSE 6 13 3 7 1015.6 - 0.0
24/03:30am 17.9 15.9 7.2 49 5.5 SSE 7 17 4 9 1015.6 - 0.0
24/03:00am 18.4 16.5 7.4 48 5.7 SSE 7 15 4 8 1015.5 1014.0 0.0
24/02:30am 18.6 16.7 7.4 48 5.8 SSE 7 17 4 9 1015.3 - 0.0
24/02:00am 19.0 17.3 8.2 49 5.7 SSE 7 17 4 9 1015.4 - 0.0
24/01:30am 19.4 17.7 8.2 48 5.9 SSE 7 17 4 9 1015.4 - 0.0
24/01:00am 20.0 17.9 8.1 46 6.3 SSE 9 20 5 11 1015.4 - 0.0
24/12:30am 20.4 18.2 7.9 44 6.6 S 9 19 5 10 1015.3 - 0.0
24/12:00am 20.6 18.3 7.4 42 6.9 SSE 9 19 5 10 1015.5 1014.0 0.0
 
Date/Time
WST
Temp
°C
App
Temp
°C
Dew
Point
Rel
Hum
%
Delta-T
°C
Wind Press
QNH
hPa
Press
MSL
hPa
Rain
since 9 am
mm
Dir
 
Spd
km/h
Gust
km/h
Spd
kts
Gust
kts
23/11:30pm 20.2 18.5 7.4 43 6.7 SSE 6 13 3 7 1015.7 - 0.0
23/11:00pm 19.8 18.5 7.8 46 6.3 SSE 4 7 2 4 1015.7 - 0.0
23/10:30pm 19.7 18.5 6.6 42 6.7 NNW 2 6 1 3 1016.0 - 0.0
23/10:00pm 20.6 19.2 7.4 42 6.9 S 4 7 2 4 1015.8 - 0.0
23/09:30pm 21.2 19.6 6.2 37 7.7 SSW 4 13 2 7 1015.8 - 0.0
23/09:00pm 21.7 19.3 5.3 34 8.3 S 7 13 4 7 1015.7 1014.2 0.0
23/08:30pm 21.2 18.6 3.3 30 8.7 SW 6 7 3 4 1015.6 - 0.0
23/08:00pm 21.2 18.9 3.0 30 8.8 WSW 4 7 2 4 1015.2 - 0.0
23/07:30pm 21.9 19.4 3.6 30 9.0 SW 6 9 3 5 1014.8 - 0.0
23/07:00pm 22.8 20.6 3.6 28 9.5 SW 4 7 2 4 1014.5 - 0.0
23/06:30pm 23.6 21.8 5.3 30 9.4 WSW 4 6 2 3 1014.1 - 0.0
23/06:00pm 24.4 22.7 6.0 30 9.6 WSW 4 6 2 3 1013.8 1012.3 0.0
23/05:30pm 25.2 23.7 5.1 27 10.4 W 2 4 1 2 1013.4 - 0.0
23/05:00pm 27.9 26.0 4.7 22 12.1 WSW 4 6 2 3 1013.2 - 0.0
23/04:30pm 29.3 26.3 0.5 15 14.1 SSW 6 15 3 8 1013.1 - 0.0
23/04:00pm 30.0 27.5 1.3 16 14.3 SW 4 7 2 4 1012.9 - 0.0
23/03:30pm 30.0 27.2 -0.7 13 14.8 SE 4 7 2 4 1012.8 - 0.0
23/03:00pm 31.0 28.1 -1.3 12 15.5 WSW 4 15 2 8 1012.9 1011.4 0.0
23/02:30pm 30.7 27.8 -1.1 13 15.3 S 4 11 2 6 1012.9 - 0.0
23/02:00pm 30.7 28.0 -2.1 12 15.5 WSW 2 7 1 4 1013.1 - 0.0
23/01:30pm 30.3 26.9 -1.8 12 15.2 SSW 6 13 3 7 1013.5 - 0.0
23/01:00pm 30.6 27.3 -1.4 12 15.3 S 6 15 3 8 1013.8 - 0.0
23/12:30pm 29.4 26.2 -3.4 11 15.0 NNE 4 9 2 5 1014.2 - 0.0
23/12:00pm 29.3 25.8 -3.2 12 14.9 SW 6 13 3 7 1014.7 1013.3 0.0
23/11:30am 28.9 25.8 -2.8 12 14.6 N 4 11 2 6 1015.4 - 0.0
23/11:00am 27.8 24.0 -5.6 11 14.5 N 6 19 3 10 1015.8 - 0.0
23/10:30am 28.0 24.0 -6.1 10 14.7 N 7 17 4 9 1016.2 - 0.0
23/10:00am 27.1 22.7 -5.6 11 14.1 NNW 9 19 5 10 1016.9 - 0.0
23/09:30am 26.4 22.8 -3.9 13 13.4 N 6 15 3 8 1017.2 - 0.0
23/09:00am 25.4 23.0 -0.6 18 12.1 ENE 2 4 1 2 1017.6 1016.1 0.0
23/08:30am 23.2 20.4 -3.2 17 11.5 NNW 2 6 1 3 1017.9 - 0.0
23/08:00am 21.6 19.2 -0.1 23 9.9 ESE 2 4 1 2 1018.1 - 0.0
23/07:30am 17.9 15.3 1.2 32 7.6 SW 4 6 2 3 1017.9 - 0.0
23/07:00am 16.5 14.8 1.8 37 6.7 CALM 0 2 0 1 1017.6 - 0.0
23/06:30am 14.6 12.0 -1.8 32 6.8 NW 2 2 1 1 1017.1 - 0.0
23/06:00am 14.1 11.8 -2.0 33 6.6 CALM 0 2 0 1 1016.8 1015.4 0.0
23/05:30am 14.2 12.1 -1.1 35 6.4 CALM 0 2 0 1 1016.6 - 0.0
23/05:00am 13.9 11.5 -0.5 37 6.1 SSW 2 2 1 1 1016.3 - 0.0
23/04:30am 13.4 11.0 -0.6 38 5.9 SSW 2 4 1 2 1016.2 - 0.0
23/04:00am 13.8 11.9 0.7 41 5.7 CALM 0 2 0 1 1016.1 - 0.0
23/03:30am 14.4 11.9 -1.1 34 6.5 N 2 4 1 2 1016.1 - 0.0
23/03:00am 15.2 12.7 -1.1 32 6.9 NE 2 6 1 3 1016.0 1014.6 0.0
23/02:30am 13.8 10.7 0.0 38 5.9 E 6 9 3 5 1016.1 - 0.0
23/02:00am 15.3 12.7 -1.7 31 7.1 N 2 4 1 2 1016.1 - 0.0
23/01:30am 15.5 12.8 -2.1 30 7.3 NNE 2 4 1 2 1016.1 - 0.0
23/01:00am 15.7 13.9 1.4 38 6.4 CALM 0 2 0 1 1016.2 - 0.0
23/12:30am 17.3 14.8 -1.0 29 7.9 N 2 4 1 2 1016.2 - 0.0
23/12:00am 17.6 14.6 -1.9 26 8.3 NNW 4 4 2 2 1016.4 1015.0 0.0
 
Date/Time
WST
Temp
°C
App
Temp
°C
Dew
Point
Rel
Hum
%
Delta-T
°C
Wind Press
QNH
hPa
Press
MSL
hPa
Rain
since 9 am
mm
Dir
 
Spd
km/h
Gust
km/h
Spd
kts
Gust
kts
22/11:30pm 18.2 14.9 -4.0 22 9.1 NNW 4 6 2 3 1016.4 - 0.0

Other Formats:

Comma delimited format used in spreadsheet applications
http://www.bom.gov.au/fwo/IDW60801/IDW60801.94212.axf

JavaScript Object Notation format (JSON) in row-major order
http://www.bom.gov.au/fwo/IDW60801/IDW60801.94212.json